Mansfield, IL (61854)

6:33 AM CST on February 25, 2017 (GMT -0600)
Dale Valley Subdivision | | Change Station

Elev 781 ft 40.21 °N, 88.42 °W | Updated 11 seconds ago

Overcast
Overcast
25.5 °F
Feels Like 19 °F
N
5.6
Wind Variable Wind from WNW
Gusts 7.4 mph

Today
High -- | Low -- °F
--% Chance of Precip.
Yesterday
High -- | Low -- °F
Precip. -- in
Pressure 29.83 in
Visibility 10.0 miles
Clouds Overcast 2200 ft
Windchill 19 °F
Dew Point 13 °F
Humidity 59%
Rainfall 0.00 in
Snow Depth Not available.
6:33 AM 5:41 PM
Waning Crescent, 1% visible
METAR KCMI 251153Z 27020G31KT 10SM UP OVC022 M03/M07 A2981 RMK AO2 PK WND 29031/1101 UPB46SNB35E46 SLP100 P0000 60001 70001 I6002 T10331072 10039 21033 53033
Pressure 29.83 in
Visibility 10.0 miles
Clouds Overcast 2200 ft
Windchill 19 °F
Dew Point 13 °F
Humidity 59%
Rainfall 0.00 in
Snow Depth Not available.
6:33 AM 5:41 PM
Waning Crescent, 1% visible
METAR KCMI 251153Z 27020G31KT 10SM UP OVC022 M03/M07 A2981 RMK AO2 PK WND 29031/1101 UPB46SNB35E46 SLP100 P0000 60001 70001 I6002 T10331072 10039 21033 53033

Get Your Daily Forecast Email!

Thanks for signing up!

Be on the lookout for a verification email in your inbox.

You'll start receiving the daily forecast at 8 AM.

×

10-Day Weather Forecast

Almanac

Astronomy

Feb. 25, 2017 Rise Set
Actual Time
Civil Twilight
Nautical Twilight
Astronomical Twilight
Moon
Length of Visible Light
Length of Day
Tomorrow will be .
, % of the Moon is Illuminated

Today's Extremes

State Highs State Lows

Community

WunderPhotos

Upload Photos

1,962,540 photos uploaded!

WunderBlog® & News

Nearby

Air Quality

  Air Quality AQ Index Pollutant
Not available.

Snow Depth

Station Depth Elevation

Earthquake Activity

City Distance Mag. Time & Date
Minimum magnitude displayed is 2.5.

Coastal Water Temperatures

Place Temperature

Stations

Nearby Weather Stations

Station Location Temp. Windchill Dew Point Humidity Wind Precip. Elev Updated Type
                   

Watches & Warnings

There are currently no watches in effect.